sensor_id;sensor_type;location;lat;lon;timestamp;temperature;humidity
39875;DHT22;25547;52.530;13.194;2022-11-20T07:01:51;1.40;99.90
39875;DHT22;25547;52.530;13.194;2022-11-20T07:04:16;1.40;99.90
39875;DHT22;25547;52.530;13.194;2022-11-20T07:06:42;1.40;99.90
39875;DHT22;25547;52.530;13.194;2022-11-20T07:09:08;1.40;99.90
39875;DHT22;25547;52.530;13.194;2022-11-20T07:11:33;1.40;99.90
39875;DHT22;25547;52.530;13.194;2022-11-20T07:13:59;1.40;99.90
39875;DHT22;25547;52.530;13.194;2022-11-20T07:16:24;1.40;99.90
39875;DHT22;25547;52.530;13.194;2022-11-20T07:18:50;1.40;99.90
39875;DHT22;25547;52.530;13.194;2022-11-20T07:21:18;1.40;99.90
39875;DHT22;25547;52.530;13.194;2022-11-20T07:23:48;1.40;99.90
39875;DHT22;25547;52.530;13.194;2022-11-20T07:26:17;1.40;99.90
39875;DHT22;25547;52.530;13.194;2022-11-20T07:28:44;1.40;99.90
39875;DHT22;25547;52.530;13.194;2022-11-20T07:31:13;1.50;99.90
39875;DHT22;25547;52.530;13.194;2022-11-20T07:33:40;1.40;99.90
39875;DHT22;25547;52.530;13.194;2022-11-20T07:36:08;1.40;99.90
39875;DHT22;25547;52.530;13.194;2022-11-20T07:38:37;1.40;99.90
39875;DHT22;25547;52.530;13.194;2022-11-20T07:41:02;1.50;99.90
39875;DHT22;25547;52.530;13.194;2022-11-20T07:43:28;1.50;99.90
39875;DHT22;25547;52.530;13.194;2022-11-20T07:46:00;1.60;99.90
39875;DHT22;25547;52.530;13.194;2022-11-20T07:48:26;1.60;99.90
39875;DHT22;25547;52.530;13.194;2022-11-20T07:50:55;1.50;99.90
39875;DHT22;25547;52.530;13.194;2022-11-20T07:53:24;1.50;99.90
39875;DHT22;25547;52.530;13.194;2022-11-20T07:55:50;1.50;99.90
39875;DHT22;25547;52.530;13.194;2022-11-20T07:58:20;1.50;99.90
39875;DHT22;25547;52.530;13.194;2022-11-20T08:00:46;1.50;99.90
39875;DHT22;25547;52.530;13.194;2022-11-20T08:03:12;1.60;99.90
39875;DHT22;25547;52.530;13.194;2022-11-20T08:05:40;1.60;99.90
39875;DHT22;25547;52.530;13.194;2022-11-20T08:08:06;1.60;99.90
39875;DHT22;25547;52.530;13.194;2022-11-20T08:10:36;1.60;99.90
39875;DHT22;25547;52.530;13.194;2022-11-20T08:13:02;1.50;99.90
39875;DHT22;25547;52.530;13.194;2022-11-20T08:15:50;1.60;99.90
39875;DHT22;25547;52.530;13.194;2022-11-20T08:18:18;1.60;99.90
39875;DHT22;25547;52.530;13.194;2022-11-20T08:20:46;1.70;99.90
39875;DHT22;25547;52.530;13.194;2022-11-20T08:23:12;1.70;99.90
39875;DHT22;25547;52.530;13.194;2022-11-20T08:25:40;1.70;99.90
39875;DHT22;25547;52.530;13.194;2022-11-20T08:28:08;1.70;99.90
39875;DHT22;25547;52.530;13.194;2022-11-20T08:30:35;1.60;99.90
39875;DHT22;25547;52.530;13.194;2022-11-20T08:33:05;1.60;99.90
39875;DHT22;25547;52.530;13.194;2022-11-20T08:35:35;1.50;99.90
39875;DHT22;25547;52.530;13.194;2022-11-20T08:38:05;1.50;99.90
39875;DHT22;25547;52.530;13.194;2022-11-20T08:40:31;1.60;99.90
39875;DHT22;25547;52.530;13.194;2022-11-20T08:42:57;1.60;99.90
39875;DHT22;25547;52.530;13.194;2022-11-20T08:45:25;1.80;99.90
39875;DHT22;25547;52.530;13.194;2022-11-20T08:47:51;1.90;99.90
39875;DHT22;25547;52.530;13.194;2022-11-20T08:50:17;1.90;99.90
39875;DHT22;25547;52.530;13.194;2022-11-20T08:52:43;2.00;99.90
39875;DHT22;25547;52.530;13.194;2022-11-20T08:55:13;2.10;99.90
39875;DHT22;25547;52.530;13.194;2022-11-20T08:57:38;2.00;99.90
39875;DHT22;25547;52.530;13.194;2022-11-20T09:00:06;2.00;99.90
39875;DHT22;25547;52.530;13.194;2022-11-20T09:02:32;2.00;99.90
39875;DHT22;25547;52.530;13.194;2022-11-20T09:04:58;2.00;99.90
39875;DHT22;25547;52.530;13.194;2022-11-20T09:07:24;2.00;99.90
39875;DHT22;25547;52.530;13.194;2022-11-20T09:09:49;1.90;99.90
39875;DHT22;25547;52.530;13.194;2022-11-20T09:12:17;2.00;99.90
39875;DHT22;25547;52.530;13.194;2022-11-20T09:14:43;2.00;99.90
39875;DHT22;25547;52.530;13.194;2022-11-20T09:17:10;2.00;99.90
39875;DHT22;25547;52.530;13.194;2022-11-20T09:19:39;2.00;99.90
39875;DHT22;25547;52.530;13.194;2022-11-20T09:22:07;2.00;99.90
39875;DHT22;25547;52.530;13.194;2022-11-20T09:24:33;2.00;99.90
39875;DHT22;25547;52.530;13.194;2022-11-20T09:27:04;2.10;99.90
39875;DHT22;25547;52.530;13.194;2022-11-20T09:29:29;2.10;99.90
39875;DHT22;25547;52.530;13.194;2022-11-20T09:31:55;2.20;99.90
39875;DHT22;25547;52.530;13.194;2022-11-20T09:34:21;2.10;99.90
39875;DHT22;25547;52.530;13.194;2022-11-20T09:36:46;2.20;99.90
39875;DHT22;25547;52.530;13.194;2022-11-20T09:39:12;2.20;99.90
39875;DHT22;25547;52.530;13.194;2022-11-20T09:41:55;2.20;99.90
39875;DHT22;25547;52.530;13.194;2022-11-20T09:44:40;2.20;99.90
39875;DHT22;25547;52.530;13.194;2022-11-20T09:53:16;2.30;99.90
39875;DHT22;25547;52.530;13.194;2022-11-20T09:55:46;2.30;99.90
39875;DHT22;25547;52.530;13.194;2022-11-20T09:58:38;2.30;99.90
39875;DHT22;25547;52.530;13.194;2022-11-20T10:01:32;2.40;99.90
39875;DHT22;25547;52.530;13.194;2022-11-20T10:04:06;2.40;99.90
39875;DHT22;25547;52.530;13.194;2022-11-20T10:07:00;2.40;99.90
39875;DHT22;25547;52.530;13.194;2022-11-20T10:09:39;2.40;99.90
39875;DHT22;25547;52.530;13.194;2022-11-20T10:12:25;2.40;99.90
39875;DHT22;25547;52.530;13.194;2022-11-20T10:15:30;2.40;99.90
39875;DHT22;25547;52.530;13.194;2022-11-20T10:26:16;2.40;99.90
39875;DHT22;25547;52.530;13.194;2022-11-20T10:29:09;2.60;99.90
39875;DHT22;25547;52.530;13.194;2022-11-20T10:32:03;2.60;99.90
39875;DHT22;25547;52.530;13.194;2022-11-20T10:34:46;2.60;99.90
39875;DHT22;25547;52.530;13.194;2022-11-20T10:37:20;2.60;99.90
39875;DHT22;25547;52.530;13.194;2022-11-20T10:40:17;2.70;99.90
39875;DHT22;25547;52.530;13.194;2022-11-20T10:42:47;2.80;99.90
39875;DHT22;25547;52.530;13.194;2022-11-20T10:45:45;2.90;99.90
39875;DHT22;25547;52.530;13.194;2022-11-20T10:48:22;2.80;99.90
39875;DHT22;25547;52.530;13.194;2022-11-20T10:56:40;2.80;99.90
39875;DHT22;25547;52.530;13.194;2022-11-20T11:02:22;2.80;99.90
39875;DHT22;25547;52.530;13.194;2022-11-20T11:04:52;3.00;99.90
39875;DHT22;25547;52.530;13.194;2022-11-20T11:07:38;2.90;99.90
39875;DHT22;25547;52.530;13.194;2022-11-20T11:10:21;3.00;99.90
39875;DHT22;25547;52.530;13.194;2022-11-20T11:12:49;3.10;99.90
39875;DHT22;25547;52.530;13.194;2022-11-20T11:15:46;3.10;99.90
39875;DHT22;25547;52.530;13.194;2022-11-20T11:18:22;3.00;99.90
39875;DHT22;25547;52.530;13.194;2022-11-20T11:20:50;3.10;99.90
39875;DHT22;25547;52.530;13.194;2022-11-20T11:23:57;3.00;99.90
39875;DHT22;25547;52.530;13.194;2022-11-20T11:26:22;3.00;99.90
39875;DHT22;25547;52.530;13.194;2022-11-20T11:28:59;3.00;99.90
39875;DHT22;25547;52.530;13.194;2022-11-20T11:31:35;2.90;99.90
39875;DHT22;25547;52.530;13.194;2022-11-20T11:34:07;2.90;99.90
39875;DHT22;25547;52.530;13.194;2022-11-20T11:36:36;2.80;99.90
39875;DHT22;25547;52.530;13.194;2022-11-20T11:39:05;2.80;99.90
39875;DHT22;25547;52.530;13.194;2022-11-20T11:41:35;2.60;99.90
39875;DHT22;25547;52.530;13.194;2022-11-20T11:44:31;2.70;99.90
39875;DHT22;25547;52.530;13.194;2022-11-20T11:50:26;2.50;99.90
39875;DHT22;25547;52.530;13.194;2022-11-20T11:55:58;2.60;99.90
39875;DHT22;25547;52.530;13.194;2022-11-20T11:58:45;2.70;99.90
39875;DHT22;25547;52.530;13.194;2022-11-20T12:03:46;2.80;99.90
39875;DHT22;25547;52.530;13.194;2022-11-20T12:06:17;2.70;99.90
39875;DHT22;25547;52.530;13.194;2022-11-20T12:09:03;2.70;99.90
39875;DHT22;25547;52.530;13.194;2022-11-20T12:11:45;2.80;99.90
39875;DHT22;25547;52.530;13.194;2022-11-20T12:14:20;2.90;99.90
39875;DHT22;25547;52.530;13.194;2022-11-20T12:16:50;3.00;99.90
39875;DHT22;25547;52.530;13.194;2022-11-20T12:19:16;3.00;99.90
39875;DHT22;25547;52.530;13.194;2022-11-20T12:31:02;2.70;99.90
39875;DHT22;25547;52.530;13.194;2022-11-20T12:38:58;2.60;99.90
39875;DHT22;25547;52.530;13.194;2022-11-20T12:41:55;2.70;99.90
39875;DHT22;25547;52.530;13.194;2022-11-20T13:04:32;2.70;99.90
39875;DHT22;25547;52.530;13.194;2022-11-20T13:07:02;2.70;99.90
39875;DHT22;25547;52.530;13.194;2022-11-20T13:09:31;2.50;99.90
39875;DHT22;25547;52.530;13.194;2022-11-20T13:15:08;2.60;99.90
39875;DHT22;25547;52.530;13.194;2022-11-20T13:18:08;2.60;99.90
39875;DHT22;25547;52.530;13.194;2022-11-20T13:20:36;2.60;99.90
39875;DHT22;25547;52.530;13.194;2022-11-20T13:23:06;2.70;99.90
39875;DHT22;25547;52.530;13.194;2022-11-20T13:25:38;2.70;99.90
39875;DHT22;25547;52.530;13.194;2022-11-20T13:30:36;2.60;99.90
39875;DHT22;25547;52.530;13.194;2022-11-20T13:33:22;2.60;99.90
39875;DHT22;25547;52.530;13.194;2022-11-20T13:36:06;2.50;99.90
39875;DHT22;25547;52.530;13.194;2022-11-20T13:38:47;2.40;99.90
39875;DHT22;25547;52.530;13.194;2022-11-20T13:41:34;2.50;99.90
39875;DHT22;25547;52.530;13.194;2022-11-20T13:46:45;2.40;99.90
39875;DHT22;25547;52.530;13.194;2022-11-20T13:49:32;2.50;99.90
39875;DHT22;25547;52.530;13.194;2022-11-20T14:00:58;2.30;99.90
39875;DHT22;25547;52.530;13.194;2022-11-20T14:03:31;2.40;99.90
39875;DHT22;25547;52.530;13.194;2022-11-20T14:06:11;2.40;99.90
39875;DHT22;25547;52.530;13.194;2022-11-20T14:08:42;2.50;99.90
39875;DHT22;25547;52.530;13.194;2022-11-20T14:14:15;2.50;99.90
39875;DHT22;25547;52.530;13.194;2022-11-20T14:16:41;2.50;99.90
39875;DHT22;25547;52.530;13.194;2022-11-20T14:19:25;2.60;99.90
39875;DHT22;25547;52.530;13.194;2022-11-20T14:21:54;2.50;99.90
39875;DHT22;25547;52.530;13.194;2022-11-20T14:24:23;2.60;99.90
39875;DHT22;25547;52.530;13.194;2022-11-20T14:26:50;2.60;99.90
39875;DHT22;25547;52.530;13.194;2022-11-20T14:29:19;2.60;99.90
39875;DHT22;25547;52.530;13.194;2022-11-20T14:31:48;2.50;99.90
39875;DHT22;25547;52.530;13.194;2022-11-20T14:34:22;2.60;99.90
39875;DHT22;25547;52.530;13.194;2022-11-20T14:36:50;2.70;99.90
39875;DHT22;25547;52.530;13.194;2022-11-20T14:39:25;2.60;99.90
39875;DHT22;25547;52.530;13.194;2022-11-20T14:41:53;2.60;99.90
39875;DHT22;25547;52.530;13.194;2022-11-20T14:44:34;2.60;99.90
39875;DHT22;25547;52.530;13.194;2022-11-20T14:47:02;2.50;99.90
39875;DHT22;25547;52.530;13.194;2022-11-20T14:49:30;2.50;99.90
39875;DHT22;25547;52.530;13.194;2022-11-20T14:52:13;2.40;99.90
39875;DHT22;25547;52.530;13.194;2022-11-20T14:54:58;2.40;99.90
39875;DHT22;25547;52.530;13.194;2022-11-20T14:57:31;2.40;99.90
39875;DHT22;25547;52.530;13.194;2022-11-20T15:02:43;2.40;99.90
39875;DHT22;25547;52.530;13.194;2022-11-20T15:05:12;2.50;99.90
39875;DHT22;25547;52.530;13.194;2022-11-20T15:07:41;2.50;99.90
39875;DHT22;25547;52.530;13.194;2022-11-20T15:12:45;2.50;99.90
39875;DHT22;25547;52.530;13.194;2022-11-20T15:15:12;2.50;99.90
39875;DHT22;25547;52.530;13.194;2022-11-20T15:17:42;2.40;99.90
39875;DHT22;25547;52.530;13.194;2022-11-20T15:20:16;2.50;99.90
39875;DHT22;25547;52.530;13.194;2022-11-20T15:22:44;2.40;99.90
39875;DHT22;25547;52.530;13.194;2022-11-20T15:25:17;2.50;99.90
39875;DHT22;25547;52.530;13.194;2022-11-20T15:27:43;2.40;99.90
39875;DHT22;25547;52.530;13.194;2022-11-20T15:30:18;2.50;99.90
39875;DHT22;25547;52.530;13.194;2022-11-20T15:32:45;2.50;99.90
39875;DHT22;25547;52.530;13.194;2022-11-20T15:35:16;2.40;99.90
39875;DHT22;25547;52.530;13.194;2022-11-20T15:37:44;2.50;99.90
39875;DHT22;25547;52.530;13.194;2022-11-20T15:40:13;2.50;99.90
39875;DHT22;25547;52.530;13.194;2022-11-20T15:42:41;2.40;99.90
39875;DHT22;25547;52.530;13.194;2022-11-20T15:48:01;2.30;99.90
39875;DHT22;25547;52.530;13.194;2022-11-20T15:53:44;2.10;99.90
39875;DHT22;25547;52.530;13.194;2022-11-20T15:56:15;2.00;99.90
39875;DHT22;25547;52.530;13.194;2022-11-20T15:58:41;1.90;99.90
39875;DHT22;25547;52.530;13.194;2022-11-20T16:01:15;1.80;99.90
39875;DHT22;25547;52.530;13.194;2022-11-20T16:03:43;1.70;99.90
39875;DHT22;25547;52.530;13.194;2022-11-20T16:06:12;1.70;99.90
39875;DHT22;25547;52.530;13.194;2022-11-20T16:08:41;1.70;99.90
39875;DHT22;25547;52.530;13.194;2022-11-20T16:11:13;1.70;99.90
39875;DHT22;25547;52.530;13.194;2022-11-20T16:13:40;1.70;99.90
39875;DHT22;25547;52.530;13.194;2022-11-20T16:16:33;1.50;99.90
39875;DHT22;25547;52.530;13.194;2022-11-20T16:18:59;1.50;99.90
39875;DHT22;25547;52.530;13.194;2022-11-20T16:21:26;1.50;99.90
39875;DHT22;25547;52.530;13.194;2022-11-20T16:24:03;1.50;99.90
39875;DHT22;25547;52.530;13.194;2022-11-20T16:26:30;1.50;99.90
39875;DHT22;25547;52.530;13.194;2022-11-20T16:28:57;1.50;99.90
39875;DHT22;25547;52.530;13.194;2022-11-20T16:31:23;1.50;99.90
39875;DHT22;25547;52.530;13.194;2022-11-20T16:33:52;1.50;99.90
39875;DHT22;25547;52.530;13.194;2022-11-20T16:36:20;1.50;99.90
39875;DHT22;25547;52.530;13.194;2022-11-20T16:38:55;1.60;99.90
39875;DHT22;25547;52.530;13.194;2022-11-20T16:41:26;1.60;99.90
39875;DHT22;25547;52.530;13.194;2022-11-20T16:43:56;1.60;99.90
39875;DHT22;25547;52.530;13.194;2022-11-20T16:46:24;1.50;99.90
39875;DHT22;25547;52.530;13.194;2022-11-20T16:49:11;1.40;99.90
39875;DHT22;25547;52.530;13.194;2022-11-20T16:51:37;1.30;99.90
39875;DHT22;25547;52.530;13.194;2022-11-20T16:54:07;1.30;99.90
39875;DHT22;25547;52.530;13.194;2022-11-20T16:56:33;1.40;99.90
39875;DHT22;25547;52.530;13.194;2022-11-20T16:59:02;1.40;99.90
39875;DHT22;25547;52.530;13.194;2022-11-20T17:01:30;1.40;99.90
39875;DHT22;25547;52.530;13.194;2022-11-20T17:06:34;1.20;99.90
39875;DHT22;25547;52.530;13.194;2022-11-20T17:09:03;1.30;99.90
39875;DHT22;25547;52.530;13.194;2022-11-20T17:11:29;1.30;99.90
39875;DHT22;25547;52.530;13.194;2022-11-20T17:13:57;1.40;99.90
39875;DHT22;25547;52.530;13.194;2022-11-20T17:16:25;1.40;99.90
39875;DHT22;25547;52.530;13.194;2022-11-20T17:18:54;1.60;99.90
39875;DHT22;25547;52.530;13.194;2022-11-20T17:21:20;1.60;99.90
39875;DHT22;25547;52.530;13.194;2022-11-20T17:23:46;1.80;99.90
39875;DHT22;25547;52.530;13.194;2022-11-20T17:26:14;1.80;99.90
39875;DHT22;25547;52.530;13.194;2022-11-20T17:28:45;1.90;99.90
39875;DHT22;25547;52.530;13.194;2022-11-20T17:31:13;2.00;99.90
39875;DHT22;25547;52.530;13.194;2022-11-20T17:33:41;1.90;99.90
39875;DHT22;25547;52.530;13.194;2022-11-20T17:36:08;1.90;99.90
39875;DHT22;25547;52.530;13.194;2022-11-20T17:38:35;1.80;99.90
39875;DHT22;25547;52.530;13.194;2022-11-20T17:41:06;1.80;99.90
39875;DHT22;25547;52.530;13.194;2022-11-20T17:43:35;1.80;99.90
39875;DHT22;25547;52.530;13.194;2022-11-20T17:46:23;1.90;99.90
39875;DHT22;25547;52.530;13.194;2022-11-20T17:48:51;1.90;99.90
39875;DHT22;25547;52.530;13.194;2022-11-20T17:51:18;1.90;99.90
39875;DHT22;25547;52.530;13.194;2022-11-20T17:53:48;1.90;99.90
39875;DHT22;25547;52.530;13.194;2022-11-20T17:56:15;1.90;99.90
39875;DHT22;25547;52.530;13.194;2022-11-20T17:59:03;1.90;99.90
39875;DHT22;25547;52.530;13.194;2022-11-20T18:01:29;1.70;99.90
39875;DHT22;25547;52.530;13.194;2022-11-20T18:03:55;1.70;99.90
39875;DHT22;25547;52.530;13.194;2022-11-20T18:06:24;1.70;99.90
39875;DHT22;25547;52.530;13.194;2022-11-20T18:08:50;1.70;99.90
39875;DHT22;25547;52.530;13.194;2022-11-20T18:11:24;1.70;99.90
39875;DHT22;25547;52.530;13.194;2022-11-20T18:13:53;1.50;99.90
39875;DHT22;25547;52.530;13.194;2022-11-20T18:16:41;1.50;99.90
39875;DHT22;25547;52.530;13.194;2022-11-20T18:19:08;1.20;99.90
39875;DHT22;25547;52.530;13.194;2022-11-20T18:21:34;1.20;99.90
39875;DHT22;25547;52.530;13.194;2022-11-20T18:24:00;1.10;99.90
39875;DHT22;25547;52.530;13.194;2022-11-20T18:26:26;1.20;99.90
39875;DHT22;25547;52.530;13.194;2022-11-20T18:28:55;1.20;99.90
39875;DHT22;25547;52.530;13.194;2022-11-20T18:31:23;1.20;99.90
39875;DHT22;25547;52.530;13.194;2022-11-20T18:33:49;1.30;99.90
39875;DHT22;25547;52.530;13.194;2022-11-20T18:36:25;1.30;99.90
39875;DHT22;25547;52.530;13.194;2022-11-20T18:38:52;1.30;99.90
39875;DHT22;25547;52.530;13.194;2022-11-20T18:41:21;1.20;99.90
39875;DHT22;25547;52.530;13.194;2022-11-20T18:44:11;1.20;99.90
39875;DHT22;25547;52.530;13.194;2022-11-20T18:46:56;1.20;99.90
39875;DHT22;25547;52.530;13.194;2022-11-20T18:49:24;1.20;99.90
39875;DHT22;25547;52.530;13.194;2022-11-20T18:51:52;1.30;99.90
39875;DHT22;25547;52.530;13.194;2022-11-20T18:54:18;1.20;99.90
39875;DHT22;25547;52.530;13.194;2022-11-20T18:56:45;1.10;99.90
39875;DHT22;25547;52.530;13.194;2022-11-20T18:59:12;1.00;99.90
39875;DHT22;25547;52.530;13.194;2022-11-20T19:01:38;0.80;99.90
39875;DHT22;25547;52.530;13.194;2022-11-20T19:04:11;0.70;99.90
39875;DHT22;25547;52.530;13.194;2022-11-20T19:06:39;0.60;99.90
39875;DHT22;25547;52.530;13.194;2022-11-20T19:09:06;0.60;99.90
39875;DHT22;25547;52.530;13.194;2022-11-20T19:11:33;0.70;99.90
39875;DHT22;25547;52.530;13.194;2022-11-20T19:13:59;0.60;99.90
39875;DHT22;25547;52.530;13.194;2022-11-20T19:16:25;0.60;99.90
39875;DHT22;25547;52.530;13.194;2022-11-20T19:18:51;0.60;99.90
39875;DHT22;25547;52.530;13.194;2022-11-20T19:21:22;0.60;99.90
39875;DHT22;25547;52.530;13.194;2022-11-20T19:23:53;0.70;99.90
39875;DHT22;25547;52.530;13.194;2022-11-20T19:26:19;0.80;99.90
39875;DHT22;25547;52.530;13.194;2022-11-20T19:28:47;0.70;99.90
39875;DHT22;25547;52.530;13.194;2022-11-20T19:31:15;0.70;99.90
39875;DHT22;25547;52.530;13.194;2022-11-20T19:33:41;0.70;99.90
39875;DHT22;25547;52.530;13.194;2022-11-20T19:36:11;0.60;99.90
39875;DHT22;25547;52.530;13.194;2022-11-20T19:38:43;0.60;99.90
39875;DHT22;25547;52.530;13.194;2022-11-20T19:41:09;0.50;99.90
39875;DHT22;25547;52.530;13.194;2022-11-20T19:43:35;0.60;99.90
39875;DHT22;25547;52.530;13.194;2022-11-20T19:46:02;0.70;99.90
39875;DHT22;25547;52.530;13.194;2022-11-20T19:48:35;0.70;99.90
39875;DHT22;25547;52.530;13.194;2022-11-20T19:51:13;0.70;99.90
39875;DHT22;25547;52.530;13.194;2022-11-20T19:53:39;0.80;99.90
39875;DHT22;25547;52.530;13.194;2022-11-20T19:56:10;0.80;99.90
39875;DHT22;25547;52.530;13.194;2022-11-20T19:58:36;0.70;99.90
39875;DHT22;25547;52.530;13.194;2022-11-20T20:01:16;0.80;99.90
39875;DHT22;25547;52.530;13.194;2022-11-20T20:03:43;0.80;99.90
39875;DHT22;25547;52.530;13.194;2022-11-20T20:06:14;0.90;99.90
39875;DHT22;25547;52.530;13.194;2022-11-20T20:08:41;0.90;99.90
39875;DHT22;25547;52.530;13.194;2022-11-20T20:11:18;0.90;99.90
39875;DHT22;25547;52.530;13.194;2022-11-20T20:13:45;0.70;99.90
39875;DHT22;25547;52.530;13.194;2022-11-20T20:16:16;0.70;99.90
39875;DHT22;25547;52.530;13.194;2022-11-20T20:18:42;0.60;99.90
39875;DHT22;25547;52.530;13.194;2022-11-20T20:21:10;0.70;99.90
39875;DHT22;25547;52.530;13.194;2022-11-20T20:23:39;0.60;99.90
39875;DHT22;25547;52.530;13.194;2022-11-20T20:26:07;0.70;99.90
39875;DHT22;25547;52.530;13.194;2022-11-20T20:28:34;0.60;99.90
39875;DHT22;25547;52.530;13.194;2022-11-20T20:31:13;0.60;99.90
39875;DHT22;25547;52.530;13.194;2022-11-20T20:33:42;0.60;99.90
39875;DHT22;25547;52.530;13.194;2022-11-20T20:36:09;0.60;99.90
39875;DHT22;25547;52.530;13.194;2022-11-20T20:38:35;0.50;99.90
39875;DHT22;25547;52.530;13.194;2022-11-20T20:41:01;0.60;99.90
39875;DHT22;25547;52.530;13.194;2022-11-20T20:43:27;0.60;99.90
39875;DHT22;25547;52.530;13.194;2022-11-20T20:45:55;0.60;99.90
39875;DHT22;25547;52.530;13.194;2022-11-20T20:48:22;0.50;99.90
39875;DHT22;25547;52.530;13.194;2022-11-20T20:50:55;0.40;99.90
39875;DHT22;25547;52.530;13.194;2022-11-20T20:53:21;0.40;99.90
39875;DHT22;25547;52.530;13.194;2022-11-20T20:55:55;0.40;99.90
39875;DHT22;25547;52.530;13.194;2022-11-20T20:58:21;0.30;99.90
39875;DHT22;25547;52.530;13.194;2022-11-20T21:00:49;0.40;99.90
39875;DHT22;25547;52.530;13.194;2022-11-20T21:03:17;0.40;99.90
39875;DHT22;25547;52.530;13.194;2022-11-20T21:05:44;0.40;99.90
39875;DHT22;25547;52.530;13.194;2022-11-20T21:08:10;0.40;99.90
39875;DHT22;25547;52.530;13.194;2022-11-20T21:10:55;0.40;99.90
39875;DHT22;25547;52.530;13.194;2022-11-20T21:13:21;0.40;99.90
39875;DHT22;25547;52.530;13.194;2022-11-20T21:15:49;0.40;99.90
39875;DHT22;25547;52.530;13.194;2022-11-20T21:18:16;0.30;99.90
39875;DHT22;25547;52.530;13.194;2022-11-20T21:20:43;0.30;99.90
39875;DHT22;25547;52.530;13.194;2022-11-20T21:23:27;0.30;99.90
39875;DHT22;25547;52.530;13.194;2022-11-20T21:25:53;0.40;99.90
39875;DHT22;25547;52.530;13.194;2022-11-20T21:28:18;0.40;99.90
39875;DHT22;25547;52.530;13.194;2022-11-20T21:30:47;0.30;99.90
39875;DHT22;25547;52.530;13.194;2022-11-20T21:33:13;0.30;99.90
39875;DHT22;25547;52.530;13.194;2022-11-20T21:35:38;0.30;99.90
39875;DHT22;25547;52.530;13.194;2022-11-20T21:38:05;0.30;99.90
39875;DHT22;25547;52.530;13.194;2022-11-20T21:40:31;0.40;99.90
39875;DHT22;25547;52.530;13.194;2022-11-20T21:42:56;0.30;99.90
39875;DHT22;25547;52.530;13.194;2022-11-20T21:45:22;0.20;99.90
39875;DHT22;25547;52.530;13.194;2022-11-20T21:47:48;0.20;99.90
39875;DHT22;25547;52.530;13.194;2022-11-20T21:50:17;0.20;99.90
39875;DHT22;25547;52.530;13.194;2022-11-20T21:52:47;0.10;99.90
39875;DHT22;25547;52.530;13.194;2022-11-20T21:55:12;0.00;99.90
39875;DHT22;25547;52.530;13.194;2022-11-20T21:57:38;-0.10;99.90
39875;DHT22;25547;52.530;13.194;2022-11-20T22:00:06;0.00;99.90
39875;DHT22;25547;52.530;13.194;2022-11-20T22:02:37;0.10;99.90
39875;DHT22;25547;52.530;13.194;2022-11-20T22:05:03;0.10;99.90
39875;DHT22;25547;52.530;13.194;2022-11-20T22:07:29;0.10;99.90
39875;DHT22;25547;52.530;13.194;2022-11-20T22:09:57;0.00;99.90
39875;DHT22;25547;52.530;13.194;2022-11-20T22:12:25;0.00;99.90
39875;DHT22;25547;52.530;13.194;2022-11-20T22:14:53;0.10;99.90
39875;DHT22;25547;52.530;13.194;2022-11-20T22:17:18;0.00;99.90
39875;DHT22;25547;52.530;13.194;2022-11-20T22:20:07;0.00;99.90
39875;DHT22;25547;52.530;13.194;2022-11-20T22:22:33;-0.10;99.90
39875;DHT22;25547;52.530;13.194;2022-11-20T22:24:58;-0.10;99.90
39875;DHT22;25547;52.530;13.194;2022-11-20T22:27:26;-0.10;99.90
39875;DHT22;25547;52.530;13.194;2022-11-20T22:29:54;0.00;99.90
39875;DHT22;25547;52.530;13.194;2022-11-20T22:32:20;0.00;99.90
39875;DHT22;25547;52.530;13.194;2022-11-20T22:34:47;-0.20;99.90
39875;DHT22;25547;52.530;13.194;2022-11-20T22:37:13;-0.30;99.90
39875;DHT22;25547;52.530;13.194;2022-11-20T22:39:41;-0.30;99.90
39875;DHT22;25547;52.530;13.194;2022-11-20T22:42:09;-0.20;99.90
39875;DHT22;25547;52.530;13.194;2022-11-20T22:44:34;-0.30;99.90
39875;DHT22;25547;52.530;13.194;2022-11-20T22:47:05;-0.20;99.90
39875;DHT22;25547;52.530;13.194;2022-11-20T22:49:30;-0.10;99.90
39875;DHT22;25547;52.530;13.194;2022-11-20T22:51:56;-0.20;99.90
39875;DHT22;25547;52.530;13.194;2022-11-20T22:54:24;-0.10;99.90
39875;DHT22;25547;52.530;13.194;2022-11-20T22:56:49;-0.10;99.90
39875;DHT22;25547;52.530;13.194;2022-11-20T22:59:15;0.00;99.90
39875;DHT22;25547;52.530;13.194;2022-11-20T23:01:45;0.10;99.90
39875;DHT22;25547;52.530;13.194;2022-11-20T23:04:13;0.10;99.90
39875;DHT22;25547;52.530;13.194;2022-11-20T23:06:41;0.10;99.90
39875;DHT22;25547;52.530;13.194;2022-11-20T23:09:07;0.00;99.90
39875;DHT22;25547;52.530;13.194;2022-11-20T23:11:34;0.10;99.90
39875;DHT22;25547;52.530;13.194;2022-11-20T23:14:02;0.10;99.90
39875;DHT22;25547;52.530;13.194;2022-11-20T23:16:29;0.20;99.90
39875;DHT22;25547;52.530;13.194;2022-11-20T23:19:00;0.20;99.90
39875;DHT22;25547;52.530;13.194;2022-11-20T23:21:26;0.30;99.90
39875;DHT22;25547;52.530;13.194;2022-11-20T23:23:54;0.20;99.90
39875;DHT22;25547;52.530;13.194;2022-11-20T23:26:26;0.30;99.90
39875;DHT22;25547;52.530;13.194;2022-11-20T23:28:53;0.40;99.90
39875;DHT22;25547;52.530;13.194;2022-11-20T23:31:19;0.40;99.90
39875;DHT22;25547;52.530;13.194;2022-11-20T23:33:48;0.40;99.90
39875;DHT22;25547;52.530;13.194;2022-11-20T23:36:14;0.30;99.90
39875;DHT22;25547;52.530;13.194;2022-11-20T23:38:42;0.20;99.90
39875;DHT22;25547;52.530;13.194;2022-11-20T23:41:11;0.10;99.90
39875;DHT22;25547;52.530;13.194;2022-11-20T23:43:37;0.10;99.90
39875;DHT22;25547;52.530;13.194;2022-11-20T23:46:03;0.10;99.90
39875;DHT22;25547;52.530;13.194;2022-11-20T23:48:34;0.10;99.90
39875;DHT22;25547;52.530;13.194;2022-11-20T23:51:00;-0.10;99.90
39875;DHT22;25547;52.530;13.194;2022-11-20T23:53:26;-0.20;99.90
39875;DHT22;25547;52.530;13.194;2022-11-20T23:55:54;-0.10;99.90
39875;DHT22;25547;52.530;13.194;2022-11-20T23:58:21;0.00;99.90
